Data for 08/29/2009

Time Sea-Level Adjusted Pressure Absolute Pressure Temperature Relative Humidity Dew Point   
(mb) (inHg) (mb) (inHg) (C) (F) (%) (C) (F)
00:05 1024 30.24 853 25.19 19.3 66.8 33 2.8 37.1
00:10 1024 30.24 853 25.19 19.3 66.8 33 2.8 37
00:15 1024 30.24 853 25.19 19.2 66.5 34 2.9 37.3
00:20 1024 30.24 853 25.19 19.1 66.4 34 2.8 37.1
00:25 1024 30.24 853 25.19 19 66.1 34 2.8 37.1
00:30 1024 30.24 853 25.19 18.8 65.9 34 2.8 37
00:35 1024 30.24 853 25.19 18.7 65.7 35 2.9 37.3
00:40 1024 30.24 853 25.19 18.6 65.5 35 2.9 37.2
00:45 1024 30.24 853 25.19 18.5 65.3 35 2.9 37.2
00:50 1024 30.24 853 25.19 18.5 65.2 35 3 37.4
00:55 1024 30.24 853 25.19 18.4 65 36 3 37.4
01:00 1024 30.24 853 25.19 18.3 64.9 36 3.1 37.5
01:05 1024 30.24 853 25.19 18.1 64.6 36 3 37.3
01:10 1024 30.24 853 25.19 18.1 64.6 36 3.1 37.5
01:15 1024 30.24 853 25.19 18 64.4 37 3.1 37.5
01:20 1024 30.24 853 25.19 17.9 64.3 37 3.1 37.6
01:25 1024 30.24 853 25.19 17.9 64.3 37 3.2 37.8
01:30 1024 30.24 853 25.19 17.9 64.2 37 3.3 37.9
01:35 1024 30.24 853 25.19 17.8 64.1 37 3.2 37.8
01:40 1024 30.24 853 25.19 17.8 64 38 3.4 38
01:45 1024 30.24 853 25.19 17.8 64.1 38 3.4 38
01:50 1023 30.21 853 25.19 17.8 64 38 3.4 38.1
01:55 1023 30.21 853 25.19 17.7 63.9 39 3.6 38.4
02:00 1023 30.21 853 25.19 17.6 63.6 39 3.5 38.4
02:05 1023 30.21 853 25.19 17.6 63.8 39 3.5 38.3
02:10 1023 30.21 853 25.19 17.6 63.6 39 3.5 38.3
02:15 1023 30.21 853 25.19 17.5 63.4 39 3.5 38.3
02:20 1024 30.24 853 25.19 17.5 63.5 39 3.6 38.5
02:25 1024 30.24 853 25.19 17.4 63.4 40 3.7 38.6
02:30 1024 30.24 853 25.19 17.3 63.2 39 3.5 38.4
02:35 1024 30.24 853 25.19 17.3 63.2 40 3.7 38.6
02:40 1024 30.24 853 25.19 17.2 63 40 3.7 38.6
02:45 1024 30.24 853 25.19 17.2 63 40 3.7 38.6
02:50 1024 30.24 853 25.19 17.1 62.8 41 3.8 38.8
02:55 1024 30.24 853 25.19 17 62.6 41 3.7 38.7
03:00 1024 30.24 853 25.19 17 62.5 41 3.8 38.9
03:05 1023 30.21 853 25.19 16.8 62.2 42 3.8 38.8
03:10 1023 30.21 853 25.19 16.8 62.2 41 3.7 38.7
03:15 1023 30.21 853 25.19 16.7 62 42 3.8 38.8
03:20 1023 30.21 852 25.16 16.6 61.9 42 3.7 38.7
03:25 1023 30.21 853 25.19 16.5 61.6 42 3.8 38.8
03:30 1023 30.21 852 25.16 16.4 61.6 42 3.7 38.6
03:35 1023 30.21 852 25.16 16.4 61.6 42 3.6 38.4
03:40 1023 30.21 853 25.19 16.5 61.7 42 3.5 38.4
03:45 1023 30.21 853 25.19 16.5 61.7 42 3.6 38.5
03:50 1023 30.21 853 25.19 16.4 61.5 42 3.6 38.5
03:55 1023 30.21 853 25.19 16.4 61.5 42 3.5 38.4
04:00 1024 30.24 853 25.19 16.3 61.4 42 3.5 38.3
04:05 1024 30.24 853 25.19 16.3 61.4 42 3.5 38.4
04:10 1024 30.24 853 25.19 16.3 61.3 42 3.5 38.2
04:15 1024 30.24 853 25.19 16.2 61.2 42 3.3 38
04:20 1023 30.21 853 25.19 16.3 61.3 42 3.4 38.1
04:25 1023 30.21 853 25.19 16.2 61.2 42 3.3 38
04:30 1023 30.21 853 25.19 16.2 61.1 41 3.2 37.7
04:35 1023 30.21 852 25.16 16.2 61.1 42 3.2 37.8
04:40 1023 30.21 852 25.16 16.1 61 42 3.2 37.8
04:45 1023 30.21 852 25.16 16 60.9 42 3.3 37.9
04:50 1023 30.21 852 25.16 16 60.7 42 3.3 37.9
04:55 1023 30.21 852 25.16 16 60.7 42 3.2 37.7
05:00 1023 30.21 852 25.16 15.9 60.6 42 3.3 37.9
05:05 1023 30.21 852 25.16 15.8 60.5 42 3.2 37.7
05:10 1023 30.21 852 25.16 15.9 60.5 43 3.3 37.9
05:15 1023 30.21 852 25.16 15.8 60.5 42 3.1 37.6
05:20 1023 30.21 852 25.16 15.8 60.5 42 3.1 37.7
05:25 1023 30.21 852 25.16 15.7 60.2 43 3.4 38.1
05:30 1023 30.21 852 25.16 15.6 60 43 3.2 37.8
05:35 1023 30.21 852 25.16 15.5 59.8 43 3.2 37.8
05:40 1023 30.21 852 25.16 15.5 60 43 3.2 37.8
05:45 1023 30.21 852 25.16 15.4 59.8 44 3.3 37.9
05:50 1023 30.21 852 25.16 15.2 59.4 44 3.3 37.9
05:55 1023 30.21 852 25.16 15.1 59.2 45 3.3 37.9
06:00 1023 30.21 852 25.16 15.1 59.2 45 3.2 37.8
06:05 1023 30.21 852 25.16 15 59 45 3.3 37.9
06:10 1023 30.21 852 25.16 14.9 58.9 45 3.2 37.7
06:15 1023 30.21 852 25.16 14.9 58.8 45 3.3 37.9
06:20 1023 30.21 852 25.16 14.9 58.8 45 3 37.4
06:25 1023 30.21 852 25.16 14.9 58.7 45 3 37.4
06:30 1023 30.21 852 25.16 15 58.9 44 2.9 37.3
06:35 1023 30.21 852 25.16 15 59 44 3 37.3
06:40 1023 30.21 852 25.16 15 59 44 2.9 37.2
06:45 1023 30.21 852 25.16 15 59 44 3 37.4
06:50 1023 30.21 852 25.16 15.1 59.1 44 3.1 37.6
06:55 1023 30.21 852 25.16 15.2 59.4 44 3.1 37.6
07:00 1023 30.21 852 25.16 15.3 59.6 44 3.2 37.7
07:05 1023 30.21 852 25.16 15.4 59.7 44 3.2 37.8
07:10 1023 30.21 852 25.16 15.4 59.6 44 3.2 37.7
07:15 1023 30.21 852 25.16 15.4 59.8 44 3.3 37.9
07:20 1023 30.21 852 25.16 15.4 59.8 44 3.3 38
07:25 1023 30.21 852 25.16 15.4 59.7 44 3.3 37.9
07:30 1023 30.21 852 25.16 15.4 59.8 44 3.3 37.9
07:35 1023 30.21 852 25.16 15.5 59.8 44 3.4 38.1
07:40 1023 30.21 852 25.16 15.5 59.9 44 3.3 37.9
07:45 1023 30.21 852 25.16 15.5 60 44 3.4 38.2
07:50 1023 30.21 852 25.16 15.5 59.8 44 3.4 38.1
07:55 1023 30.21 852 25.16 15.5 59.9 44 3.3 38
08:00 1023 30.21 852 25.16 15.5 59.9 45 3.7 38.6
08:05 1023 30.21 852 25.16 15.4 59.8 45 3.6 38.4
08:10 1023 30.21 852 25.16 15.4 59.7 45 3.5 38.3
08:15 1023 30.21 852 25.16 15.3 59.6 45 3.7 38.6
08:20 1023 30.21 852 25.16 15.3 59.5 45 3.5 38.4
08:25 1023 30.21 852 25.16 15.3 59.5 45 3.6 38.5
08:30 1023 30.21 852 25.16 15.2 59.4 45 3.5 38.2
08:35 1023 30.21 853 25.19 15.2 59.4 45 3.6 38.5
08:40 1023 30.21 853 25.19 15.4 59.7 45 3.5 38.3
08:45 1023 30.21 853 25.19 15.5 59.9 45 3.6 38.5
08:50 1023 30.21 853 25.19 15.6 60.1 44 3.5 38.3
08:55 1024 30.24 853 25.19 15.6 60 45 3.8 38.9
09:00 1023 30.21 853 25.19 15.6 60 45 3.8 38.9
09:05 1024 30.24 853 25.19 16 60.8 43 3.7 38.6
09:10 1024 30.24 853 25.19 16.4 61.5 43 3.9 39.1
09:15 1024 30.24 853 25.19 16.4 61.4 43 3.9 38.9
09:20 1024 30.24 853 25.19 16.6 61.8 42 3.7 38.7
09:25 1023 30.21 853 25.19 16.9 62.3 42 4.1 39.4
09:30 1023 30.21 853 25.19 16.9 62.4 41 3.8 38.9
09:35 1023 30.21 853 25.19 17 62.5 42 4 39.2
09:40 1023 30.21 853 25.19 16.8 62.2 42 4 39.2
09:45 1023 30.21 853 25.19 16.6 61.9 43 4 39.1
09:50 1023 30.21 852 25.16 16.5 61.7 43 4.2 39.5
09:55 1023 30.21 852 25.16 16.5 61.7 44 4.3 39.7
10:00 1023 30.21 853 25.19 16.6 61.8 44 4.3 39.8
10:05 1023 30.21 852 25.16 16.8 62.2 43 4.3 39.7
10:10 1023 30.21 852 25.16 17.2 63 42 4.4 39.9
10:15 1023 30.21 852 25.16 17.4 63.4 41 4.3 39.8
10:20 1023 30.21 852 25.16 17.5 63.4 41 4.1 39.4
10:25 1023 30.21 852 25.16 17.8 64 40 4.3 39.7
10:30 1023 30.21 852 25.16 18.2 64.7 38 3.9 39
10:35 1023 30.21 852 25.16 18.4 65.2 38 3.9 39
10:40 1023 30.21 852 25.16 18.6 65.4 38 4.2 39.6
10:45 1023 30.21 852 25.16 18.6 65.4 38 4.1 39.4
10:50 1023 30.21 852 25.16 19 66.1 37 4.2 39.5
10:55 1023 30.21 852 25.16 19.4 66.9 36 4.2 39.5
11:00 1023 30.21 852 25.16 19.1 66.3 36 3.8 38.8
11:05 1023 30.21 852 25.16 19.1 66.4 36 4 39.3
11:10 1023 30.21 852 25.16 19.2 66.6 36 4.1 39.4
11:15 1023 30.21 852 25.16 19.2 66.6 37 4.2 39.5
11:20 1023 30.21 852 25.16 19.2 66.5 38 4.6 40.4
11:25 1023 30.21 852 25.16 19.3 66.7 37 4.3 39.8
11:30 1023 30.21 852 25.16 19.4 66.9 37 4.6 40.3
11:35 1023 30.21 852 25.16 19.4 66.8 37 4.6 40.3
11:40 1023 30.21 852 25.16 19.3 66.8 37 4.5 40.2
11:45 1022 30.18 852 25.16 19.3 66.7 37 4.5 40.1
11:50 1022 30.18 852 25.16 19.3 66.8 37 4.6 40.2
11:55 1022 30.18 852 25.16 19.5 67.1 36 4.3 39.8
12:00 1022 30.18 852 25.16 19.6 67.3 36 4.4 40
12:05 1022 30.18 851 25.13 19.8 67.6 36 4.5 40.1
12:10 1022 30.18 851 25.13 19.9 67.9 37 4.9 40.9
12:15 1022 30.18 851 25.13 20.1 68.1 36 4.6 40.2
12:20 1022 30.18 851 25.13 20.1 68.1 35 4.5 40.1
12:25 1022 30.18 851 25.13 20.1 68.2 36 4.9 40.8
12:30 1022 30.18 851 25.13 20.2 68.4 35 4.6 40.2
12:35 1022 30.18 851 25.13 20.2 68.3 36 4.8 40.6
12:40 1021 30.15 851 25.13 20.2 68.4 34 4.2 39.5
12:45 1021 30.15 850 25.1 20.4 68.6 34 4.1 39.4
12:50 1021 30.15 850 25.1 20.4 68.6 35 4.5 40.1
12:55 1021 30.15 850 25.1 20.4 68.7 35 4.5 40
13:00 1021 30.15 850 25.1 20.5 68.9 35 4.5 40.1
13:05 1021 30.15 850 25.1 20.6 69.1 35 4.6 40.3
13:10 1021 30.15 851 25.13 20.9 69.6 34 4.5 40.1
13:15 1021 30.15 851 25.13 21 69.7 34 4.6 40.2
13:20 1021 30.15 850 25.1 21 69.7 34 4.7 40.5
13:25 1021 30.15 850 25.1 21.1 69.9 34 4.6 40.3
13:30 1021 30.15 850 25.1 21.2 70.2 35 5.2 41.3
13:35 1021 30.15 850 25.1 21.4 70.5 33 4.5 40.1
13:40 1021 30.15 850 25.1 21.6 70.9 33 4.7 40.5
13:45 1021 30.15 850 25.1 21.9 71.4 32 4.7 40.5
13:50 1021 30.15 850 25.1 22.2 72 31 4.5 40.1
13:55 1021 30.15 850 25.1 22.4 72.4 31 4.6 40.3
14:00 1021 30.15 850 25.1 22.4 72.4 30 4.4 39.9
14:05 1021 30.15 850 25.1 22.7 72.9 31 4.7 40.5
14:10 1021 30.15 850 25.1 22.7 72.8 31 4.7 40.4
14:15 1021 30.15 850 25.1 22.8 73 31 5 41.1
14:20 1021 30.15 850 25.1 23 73.3 31 5 40.9
14:25 1021 30.15 850 25.1 23 73.3 31 5 41
14:30 1021 30.15 850 25.1 22.9 73.3 30 4.8 40.7
14:35 1021 30.15 850 25.1 23.2 73.8 30 4.8 40.7
14:40 1021 30.15 850 25.1 23.3 73.9 30 4.8 40.7
14:45 1021 30.15 850 25.1 23.4 74.2 30 5.1 41.1
14:50 1021 30.15 850 25.1 23.6 74.5 30 5.2 41.4
14:55 1021 30.15 850 25.1 23.7 74.7 30 5.2 41.3
15:00 1021 30.15 850 25.1 23.6 74.4 30 5.1 41.1
15:05 1020 30.12 850 25.1 23.6 74.5 29 4.8 40.6
15:10 1020 30.12 850 25.1 23.4 74.1 29 4.5 40.2
15:15 1020 30.12 850 25.1 23.4 74.2 28 4.3 39.8
15:20 1020 30.12 850 25.1 23.7 74.6 28 4.4 40
15:25 1020 30.12 850 25.1 23.6 74.5 28 4.5 40.1
15:30 1020 30.12 849 25.07 23.7 74.6 28 4.5 40.1
15:35 1020 30.12 850 25.1 23.6 74.4 28 4.5 40
15:40 1020 30.12 849 25.07 23.5 74.3 29 4.5 40
15:45 1020 30.12 849 25.07 23.7 74.6 28 4.4 39.9
15:50 1020 30.12 849 25.07 23.6 74.4 28 4.2 39.6
15:55 1020 30.12 849 25.07 23.4 74.2 28 4.2 39.6
16:00 1020 30.12 849 25.07 23.2 73.8 29 4.4 40
16:05 1020 30.12 849 25.07 23.2 73.7 29 4.2 39.6
16:10 1020 30.12 849 25.07 23.1 73.5 29 4.2 39.5
16:15 1020 30.12 849 25.07 23 73.4 29 4.3 39.7
16:20 1020 30.12 849 25.07 23 73.3 29 4 39.2
16:25 1020 30.12 849 25.07 22.9 73.2 29 4 39.1
16:30 1020 30.12 849 25.07 22.9 73.2 29 4 39.1
16:35 1020 30.12 849 25.07 22.9 73.2 28 3.6 38.6
16:40 1020 30.12 849 25.07 22.9 73.2 29 4 39.1
16:45 1020 30.12 849 25.07 22.9 73.2 29 4 39.2
16:50 1020 30.12 849 25.07 22.9 73.2 28 3.8 38.8
16:55 1020 30.12 849 25.07 22.9 73.3 29 4 39.2
17:00 1020 30.12 849 25.07 23 73.3 28 3.6 38.6
17:05 1020 30.12 849 25.07 22.9 73.2 28 3.7 38.6
17:10 1020 30.12 849 25.07 23 73.3 28 3.7 38.7
17:15 1020 30.12 849 25.07 23 73.4 27 3.4 38.2
17:20 1020 30.12 849 25.07 23 73.3 27 3.2 37.8
17:25 1020 30.12 849 25.07 23 73.4 27 3.4 38.1
17:30 1020 30.12 849 25.07 23 73.5 27 3.2 37.8
17:35 1020 30.12 849 25.07 22.9 73.3 27 3.2 37.7
17:40 1020 30.12 849 25.07 22.8 73.1 28 3.3 38
17:45 1020 30.12 849 25.07 22.7 72.9 28 3.4 38.1
17:50 1020 30.12 849 25.07 22.8 73 27 3.3 37.9
17:55 1020 30.12 849 25.07 22.8 73 28 3.6 38.4
18:00 1020 30.12 849 25.07 22.8 73 27 2.9 37.2
18:05 1020 30.12 849 25.07 22.8 73 27 2.8 37.1
18:10 1020 30.12 849 25.07 22.8 73 26 2.7 36.8
18:15 1020 30.12 849 25.07 22.7 72.8 27 3.1 37.6
18:20 1020 30.12 849 25.07 22.7 72.8 27 3 37.4
18:25 1020 30.12 850 25.1 22.6 72.6 27 2.8 37
18:30 1020 30.12 850 25.1 22.6 72.6 26 2.1 35.7
18:35 1020 30.12 849 25.07 22.7 72.8 26 2.2 36
18:40 1020 30.12 849 25.07 22.6 72.7 26 2.1 35.8
18:45 1020 30.12 849 25.07 22.6 72.6 26 2.1 35.8
18:50 1020 30.12 849 25.07 22.4 72.4 26 2.3 36.1
18:55 1020 30.12 849 25.07 22.3 72.1 27 2.5 36.5
19:00 1020 30.12 849 25.07 22 71.6 28 2.8 37.1
19:05 1019 30.09 849 25.07 21.9 71.4 28 2.7 36.9
19:10 1019 30.09 848 25.04 21.9 71.3 29 3.1 37.5
19:15 1019 30.09 849 25.07 21.8 71.3 30 3.9 39
19:20 1020 30.12 849 25.07 21.3 70.4 31 3.8 38.8
19:25 1020 30.12 849 25.07 21.3 70.4 31 3.7 38.6
19:30 1020 30.12 849 25.07 21.2 70.1 32 3.8 38.9
19:35 1020 30.12 849 25.07 21.1 69.9 30 3.2 37.7
19:40 1020 30.12 849 25.07 21.2 70.1 29 2.8 37.1
19:45 1020 30.12 849 25.07 21.3 70.4 29 2.6 36.7
19:50 1020 30.12 849 25.07 21.6 70.8 28 2.5 36.5
19:55 1020 30.12 849 25.07 21.7 71.1 28 2.4 36.3
20:00 1020 30.12 849 25.07 21.8 71.2 27 2.2 36
20:05 1020 30.12 849 25.07 21.8 71.3 27 2.3 36.1
20:10 1020 30.12 849 25.07 21.8 71.2 27 2.3 36.1
20:15 1020 30.12 849 25.07 21.7 71.1 28 2.5 36.4
20:20 1020 30.12 849 25.07 21.6 70.9 28 2.3 36.2
20:25 1020 30.12 849 25.07 21.5 70.6 28 2.6 36.7
20:30 1020 30.12 849 25.07 21.2 70.2 28 2.2 36
20:35 1020 30.12 849 25.07 21.2 70.2 28 2.1 35.8
20:40 1020 30.12 849 25.07 21.2 70.1 28 2 35.6
20:45 1020 30.12 849 25.07 21.1 69.9 28 1.9 35.4
20:50 1020 30.12 849 25.07 21.1 70 27 1.8 35.2
20:55 1020 30.12 849 25.07 21.1 70 27 1.7 35.1
21:00 1020 30.12 849 25.07 21.2 70.1 27 1.6 34.8
21:05 1020 30.12 849 25.07 21.2 70.1 27 1.7 35.1
21:10 1020 30.12 849 25.07 21.1 70.1 27 1.6 34.8
21:15 1020 30.12 849 25.07 21.1 70.1 28 1.9 35.5
21:20 1020 30.12 849 25.07 21 69.7 28 1.8 35.2
21:25 1020 30.12 849 25.07 21 69.8 27 1.6 35
21:30 1020 30.12 849 25.07 21 69.8 27 1.7 35
21:35 1020 30.12 849 25.07 21 69.7 28 1.9 35.4
21:40 1020 30.12 849 25.07 20.9 69.6 28 1.9 35.4
21:45 1020 30.12 849 25.07 20.8 69.5 28 2 35.5
21:50 1020 30.12 849 25.07 20.8 69.4 29 2.1 35.8
21:55 1020 30.12 849 25.07 20.6 69.1 29 2.1 35.7
22:00 1020 30.12 849 25.07 20.6 69.1 29 2.2 35.9
22:05 1020 30.12 849 25.07 20.6 69.1 29 2.1 35.8
22:10 1020 30.12 849 25.07 20.7 69.3 29 2.2 35.9
22:15 1020 30.12 849 25.07 20.7 69.2 29 2.4 36.4
22:20 1020 30.12 849 25.07 20.6 69.1 30 2.5 36.4
22:25 1020 30.12 849 25.07 20.4 68.8 30 2.7 36.8
22:30 1020 30.12 849 25.07 20.3 68.5 31 2.7 36.8
22:35 1020 30.12 849 25.07 20.2 68.4 31 2.8 37
22:40 1020 30.12 849 25.07 20.1 68.2 31 2.6 36.8
22:45 1020 30.12 849 25.07 20.1 68.1 31 2.7 36.9
22:50 1020 30.12 849 25.07 20 67.9 31 2.6 36.7
22:55 1020 30.12 849 25.07 19.9 67.9 31 2.6 36.7
23:00 1020 30.12 849 25.07 19.8 67.6 31 2.5 36.6
23:05 1020 30.12 849 25.07 19.7 67.4 32 2.5 36.4
23:10 1020 30.12 849 25.07 19.6 67.2 32 2.4 36.4
23:15 1020 30.12 849 25.07 19.4 67 32 2.4 36.4
23:20 1020 30.12 849 25.07 19.3 66.7 33 2.6 36.6
23:25 1020 30.12 849 25.07 19.2 66.5 33 2.5 36.4
23:30 1020 30.12 849 25.07 19.1 66.3 33 2.5 36.4
23:35 1020 30.12 849 25.07 19 66.2 33 2.4 36.3
23:40 1020 30.12 849 25.07 18.9 66 33 2.6 36.7
23:45 1020 30.12 849 25.07 18.8 65.9 34 2.7 36.9
23:50 1020 30.12 849 25.07 18.7 65.6 35 2.9 37.2
23:55 1020 30.12 849 25.07 18.5 65.3 36 3.1 37.6
24:00 1020 30.12 849 25.07 18.4 65.2 36 3.2 37.7